createdAt,value
2022-07-31T00:00:05.258Z,23.38
2022-07-31T00:02:57.162Z,23.30
2022-07-31T00:05:46.058Z,23.28
2022-07-31T00:08:25.608Z,23.35
2022-07-31T00:11:02.516Z,23.27
2022-07-31T00:13:56.782Z,23.22
2022-07-31T00:16:38.737Z,23.08
2022-07-31T00:19:24.721Z,23.11
2022-07-31T00:24:57.171Z,23.18
2022-07-31T00:27:34.074Z,23.13
2022-07-31T00:30:15.819Z,23.15
2022-07-31T00:33:12.889Z,23.07
2022-07-31T00:35:55.903Z,23.10
2022-07-31T00:38:39.696Z,23.12
2022-07-31T00:44:12.483Z,22.99
2022-07-31T00:46:47.142Z,22.97
2022-07-31T00:49:53.139Z,22.99
2022-07-31T00:52:25.663Z,22.99
2022-07-31T00:54:59.779Z,23.01
2022-07-31T00:57:39.237Z,22.94
2022-07-31T01:00:16.582Z,22.99
2022-07-31T01:02:50.369Z,22.96
2022-07-31T01:08:27.782Z,22.89
2022-07-31T01:11:24.982Z,22.88
2022-07-31T01:14:04.204Z,22.91
2022-07-31T01:16:47.697Z,22.83
2022-07-31T01:19:37.917Z,22.82
2022-07-31T01:22:35.355Z,22.82
2022-07-31T01:25:27.066Z,22.75
2022-07-31T01:31:24.243Z,22.65
2022-07-31T01:56:02.370Z,22.28
2022-07-31T01:59:31.886Z,22.30
2022-07-31T02:02:52.487Z,22.19
2022-07-31T02:05:33.242Z,22.05
2022-07-31T02:08:16.998Z,22.01
2022-07-31T02:10:54.537Z,21.84
2022-07-31T02:13:35.171Z,21.86
2022-07-31T02:16:13.822Z,21.80
2022-07-31T02:19:04.863Z,21.75
2022-07-31T02:21:40.227Z,21.56
2022-07-31T02:24:32.171Z,21.53
2022-07-31T02:27:58.213Z,21.65
2022-07-31T02:30:07.958Z,21.60
2022-07-31T02:32:49.097Z,21.64
2022-07-31T02:35:44.080Z,21.65
2022-07-31T02:38:22.512Z,21.35
2022-07-31T08:07:42.523Z,38.10
2022-07-31T08:10:33.270Z,36.75
2022-07-31T09:05:05.339Z,37.62
2022-07-31T09:07:33.803Z,38.87
2022-07-31T09:11:20.620Z,38.06
2022-07-31T09:14:11.828Z,39.61
2022-07-31T09:22:12.736Z,40.25
2022-07-31T09:25:41.413Z,40.08
2022-07-31T09:37:18.994Z,39.83
2022-07-31T09:41:53.534Z,41.92
2022-07-31T09:45:04.839Z,39.67
2022-07-31T09:48:08.274Z,37.99
2022-07-31T09:55:56.856Z,38.59
2022-07-31T09:59:00.708Z,38.10
2022-07-31T10:02:02.227Z,37.79
2022-07-31T10:04:36.677Z,36.47
2022-07-31T10:07:31.784Z,36.44
2022-07-31T10:10:44.402Z,36.17
2022-07-31T10:13:34.535Z,36.05
2022-07-31T10:16:05.829Z,35.64
2022-07-31T10:19:29.106Z,36.02
2022-07-31T12:26:56.081Z,33.83
2022-07-31T12:29:33.556Z,34.08
2022-07-31T12:32:56.711Z,33.90
2022-07-31T12:36:14.726Z,34.02
2022-07-31T12:43:50.023Z,33.74
2022-07-31T13:17:48.065Z,33.61
2022-07-31T13:37:06.516Z,33.58
2022-07-31T14:41:16.201Z,33.30
2022-07-31T15:04:04.856Z,32.95
2022-07-31T15:11:09.364Z,32.86
2022-07-31T15:17:43.190Z,33.07
2022-07-31T15:21:17.147Z,33.01
2022-07-31T15:51:29.696Z,32.27
2022-07-31T15:54:19.326Z,32.21
2022-07-31T15:57:12.874Z,32.40
2022-07-31T15:59:48.022Z,32.43
2022-07-31T16:02:21.253Z,32.42
2022-07-31T16:05:11.005Z,32.26
2022-07-31T16:08:31.905Z,32.17
2022-07-31T16:10:34.318Z,32.09
2022-07-31T16:13:05.639Z,32.24
2022-07-31T16:15:35.280Z,32.23
2022-07-31T16:18:10.692Z,32.13
2022-07-31T16:21:56.693Z,31.94
2022-07-31T16:24:26.174Z,31.96
2022-07-31T22:46:52.391Z,24.86
2022-07-31T22:49:20.765Z,24.87
2022-07-31T22:51:50.133Z,24.65
2022-07-31T22:57:06.569Z,24.21
2022-07-31T22:59:38.220Z,24.25
2022-07-31T23:02:09.700Z,24.34
2022-07-31T23:07:20.142Z,24.34
2022-07-31T23:09:48.159Z,24.09
2022-07-31T23:12:18.759Z,24.11
2022-07-31T23:18:28.406Z,24.13
2022-07-31T23:20:56.689Z,24.16
2022-07-31T23:23:24.546Z,24.12
2022-07-31T23:25:52.848Z,24.04
2022-07-31T23:28:20.474Z,24.17
2022-07-31T23:30:51.434Z,24.17
2022-07-31T23:33:23.178Z,24.14
2022-07-31T23:35:51.109Z,24.16
2022-07-31T23:38:19.979Z,23.81
2022-07-31T23:40:56.518Z,23.90
2022-07-31T23:43:28.610Z,24.09
2022-07-31T23:45:59.023Z,24.19
2022-07-31T23:48:59.992Z,24.21
2022-07-31T23:51:29.937Z,24.30
2022-07-31T23:56:53.014Z,24.36
2022-07-31T23:59:24.781Z,23.95
